Skip Navigation LinksHome page > Weather > Current weather Skip Navigation Links

Current Weather

Sarh, Chad

For information only: do not use for flight planning or navigation.
Latest weather
Observation time Friday, May 25, 2018 1:00 PM WAT
Local time Friday, May 25, 2018 1:46 PM WAT
Flight conditions Visual Meteorological Conditions
Winds
Wind direction South-Southeast (160°)
Wind speed 7 mph
Visibility 6.2 mi.
Sky condition
Ceiling unlimited
Cloud layer scattered clouds 2,000 ft.
Cloud layer scattered clouds 4,000 ft.
Temperature 82°F
Dewpoint 73°F
Altimeter 29.85 in.Hg
Derived measurements
Relative humidity 74%
Heat index 88°F
Density altitude 2313 ft.
METAR FTTA 251200Z 16006KT 9999 SCT020 SCT040 28/23 Q1011

Settings

Location code

InnerDrive.Weather 4.0.6615.0 Release CLR 4.0.30319.42000
Copyright ©2018 Inner Drive Technology. All rights reserved. Portions Copyright ©1986-2018 David Braverman.

Find weather

Site navigation


Skip Navigation Links

Place info

Page info

PayPal - The safer, easier way to pay online!

Return home.

Copyright ©2018 Inner Drive Technology. Purveyors of fine, hand-crafted computer software. Page printed 2018-05-25T12:46:31 UTC.